createdAt,value
2023-05-16T00:01:20.066Z,1003.39
2023-05-16T00:04:20.059Z,1003.41
2023-05-16T00:07:20.049Z,1003.4
2023-05-16T00:10:20.066Z,1003.41
2023-05-16T00:13:20.061Z,1003.39
2023-05-16T00:16:20.085Z,1003.39
2023-05-16T00:19:20.097Z,1003.37
2023-05-16T00:22:20.038Z,1003.37
2023-05-16T00:25:20.056Z,1003.34
2023-05-16T00:28:20.052Z,1003.33
2023-05-16T00:31:20.075Z,1003.33
2023-05-16T00:34:20.051Z,1003.31
2023-05-16T00:37:20.039Z,1003.34
2023-05-16T00:40:20.056Z,1003.38
2023-05-16T00:43:20.041Z,1003.35
2023-05-16T00:46:20.151Z,1003.37
2023-05-16T00:49:20.078Z,1003.34
2023-05-16T00:52:20.043Z,1003.35
2023-05-16T00:55:20.096Z,1003.33
2023-05-16T00:58:20.119Z,1003.33
2023-05-16T01:01:20.074Z,1003.39
2023-05-16T01:04:20.032Z,1003.38
2023-05-16T01:07:20.032Z,1003.42
2023-05-16T01:10:20.044Z,1003.44
2023-05-16T01:13:20.024Z,1003.38
2023-05-16T01:16:20.057Z,1003.39
2023-05-16T01:19:20.067Z,1003.43
2023-05-16T01:22:20.034Z,1003.48
2023-05-16T01:25:20.019Z,1003.41
2023-05-16T01:28:20.024Z,1003.45
2023-05-16T01:31:20.102Z,1003.44
2023-05-16T01:34:20.008Z,1003.44
2023-05-16T01:37:20.020Z,1003.47
2023-05-16T01:40:20.027Z,1003.48
2023-05-16T01:43:20.011Z,1003.46
2023-05-16T01:46:20.046Z,1003.41
2023-05-16T01:49:20.004Z,1003.37
2023-05-16T01:52:20.025Z,1003.41
2023-05-16T01:55:20.013Z,1003.43
2023-05-16T01:58:20.006Z,1003.43
2023-05-16T02:01:20.023Z,1003.47
2023-05-16T02:04:20.066Z,1003.46
2023-05-16T02:07:20.007Z,1003.53
2023-05-16T02:10:20.004Z,1003.55
2023-05-16T02:13:19.988Z,1003.6
2023-05-16T02:16:20.007Z,1003.58
2023-05-16T02:19:20.071Z,1003.54
2023-05-16T02:22:20.003Z,1003.55
2023-05-16T02:25:20.000Z,1003.56
2023-05-16T02:28:20.009Z,1003.54
2023-05-16T02:31:20.037Z,1003.55
2023-05-16T02:34:20.002Z,1003.57
2023-05-16T02:37:20.010Z,1003.56
2023-05-16T02:40:19.997Z,1003.56
2023-05-16T02:43:19.995Z,1003.58
2023-05-16T02:46:20.020Z,1003.65
2023-05-16T02:49:19.985Z,1003.63
2023-05-16T02:52:19.988Z,1003.69
2023-05-16T02:55:21.990Z,1003.78
2023-05-16T02:58:20.001Z,1003.77
2023-05-16T03:01:20.019Z,1003.79
2023-05-16T03:04:19.993Z,1003.79
2023-05-16T03:07:19.992Z,1003.84
2023-05-16T03:10:19.988Z,1003.81
2023-05-16T03:13:19.991Z,1003.78
2023-05-16T03:16:20.067Z,1003.75
2023-05-16T03:19:20.068Z,1003.76
2023-05-16T03:22:19.983Z,1003.77
2023-05-16T03:25:19.982Z,1003.79
2023-05-16T03:28:19.984Z,1003.85
2023-05-16T03:31:20.023Z,1003.8
2023-05-16T03:34:19.992Z,1003.86
2023-05-16T03:37:19.979Z,1003.9
2023-05-16T03:40:19.995Z,1003.92
2023-05-16T03:43:19.980Z,1003.92
2023-05-16T03:46:20.004Z,1003.93
2023-05-16T03:49:19.981Z,1003.94
2023-05-16T03:52:19.975Z,1003.94
2023-05-16T03:55:19.970Z,1003.95
2023-05-16T03:58:19.980Z,1004.05
2023-05-16T04:01:19.999Z,1004
2023-05-16T04:04:19.972Z,1004.01
2023-05-16T04:07:21.285Z,1004.04
2023-05-16T04:10:19.982Z,1004.06
2023-05-16T04:13:19.985Z,1004.08
2023-05-16T04:16:19.999Z,1004.13
2023-05-16T04:19:20.048Z,1004.11
2023-05-16T04:22:19.966Z,1004.15
2023-05-16T04:25:19.962Z,1004.19
2023-05-16T04:28:19.983Z,1004.21
2023-05-16T04:31:20.012Z,1004.2
2023-05-16T04:34:19.967Z,1004.19
2023-05-16T04:37:21.035Z,1004.17
2023-05-16T04:40:20.878Z,1004.14
2023-05-16T04:43:20.859Z,1004.19
2023-05-16T04:46:20.914Z,1004.22
2023-05-16T04:49:20.857Z,1004.23
2023-05-16T04:52:20.861Z,1004.26
2023-05-16T04:55:20.870Z,1004.29
2023-05-16T04:58:20.854Z,1004.32
2023-05-16T05:01:20.889Z,1004.29
2023-05-16T05:04:20.857Z,1004.38
2023-05-16T05:07:20.878Z,1004.45
2023-05-16T05:10:20.849Z,1004.45
2023-05-16T05:13:20.852Z,1004.5
2023-05-16T05:16:20.853Z,1004.54
2023-05-16T05:19:20.919Z,1004.6
2023-05-16T05:22:20.855Z,1004.66
2023-05-16T05:25:20.851Z,1004.67
2023-05-16T05:28:20.839Z,1004.69
2023-05-16T05:31:20.862Z,1004.73
2023-05-16T05:34:20.850Z,1004.82
2023-05-16T05:37:20.841Z,1004.85
2023-05-16T05:40:20.831Z,1004.89
2023-05-16T05:43:20.841Z,1004.91
2023-05-16T05:46:20.866Z,1004.93
2023-05-16T05:49:20.830Z,1004.93
2023-05-16T05:52:20.835Z,1004.94
2023-05-16T05:55:20.829Z,1004.98
2023-05-16T05:58:25.843Z,1005.04
2023-05-16T06:01:20.828Z,1005.14
2023-05-16T06:04:20.827Z,1005.13
2023-05-16T06:07:20.832Z,1005.17
2023-05-16T06:10:20.832Z,1005.2
2023-05-16T06:13:20.845Z,1005.25
2023-05-16T06:16:20.845Z,1005.27
2023-05-16T06:19:20.873Z,1005.29
2023-05-16T06:22:20.818Z,1005.31
2023-05-16T06:25:20.828Z,1005.34
2023-05-16T06:28:20.838Z,1005.35
2023-05-16T06:31:20.915Z,1005.41
2023-05-16T06:34:20.811Z,1005.45
2023-05-16T06:37:20.818Z,1005.52
2023-05-16T06:40:20.821Z,1005.56
2023-05-16T06:43:20.832Z,1005.67
2023-05-16T06:46:20.827Z,1005.61
2023-05-16T06:49:20.818Z,1005.66
2023-05-16T06:52:20.814Z,1005.66
2023-05-16T06:55:20.824Z,1005.69
2023-05-16T06:58:20.830Z,1005.77
2023-05-16T07:01:20.852Z,1005.78
2023-05-16T07:04:20.807Z,1005.86
2023-05-16T07:07:20.809Z,1005.92
2023-05-16T07:10:20.805Z,1005.98
2023-05-16T07:13:20.802Z,1006.07
2023-05-16T07:16:20.862Z,1006.04
2023-05-16T07:19:20.849Z,1006.12
2023-05-16T07:22:20.810Z,1006.16
2023-05-16T07:25:20.795Z,1006.18
2023-05-16T07:28:20.797Z,1006.23
2023-05-16T07:31:20.819Z,1006.27
2023-05-16T07:34:20.794Z,1006.3
2023-05-16T07:37:20.805Z,1006.29
2023-05-16T07:40:20.796Z,1006.34
2023-05-16T07:43:21.021Z,1006.38
2023-05-16T07:46:20.831Z,1006.45
2023-05-16T07:49:20.791Z,1006.5
2023-05-16T07:52:20.789Z,1006.59
2023-05-16T07:55:20.785Z,1006.6
2023-05-16T07:58:20.809Z,1006.62
2023-05-16T08:01:20.779Z,1006.69
2023-05-16T08:04:20.781Z,1006.73
2023-05-16T08:07:20.789Z,1006.76
2023-05-16T08:10:20.810Z,1006.79
2023-05-16T08:13:20.765Z,1006.82
2023-05-16T08:16:20.844Z,1006.85
2023-05-16T08:19:20.889Z,1006.92
2023-05-16T08:22:20.783Z,1006.96
2023-05-16T08:25:20.813Z,1007.01
2023-05-16T08:28:20.784Z,1007.04
2023-05-16T08:31:20.867Z,1007.11
2023-05-16T08:34:20.775Z,1007.13
2023-05-16T08:37:21.568Z,1007.13
2023-05-16T08:40:21.477Z,1007.17
2023-05-16T08:43:21.489Z,1007.21
2023-05-16T08:46:21.551Z,1007.22
2023-05-16T08:49:21.491Z,1007.29
2023-05-16T08:52:21.495Z,1007.28
2023-05-16T08:55:21.486Z,1007.27
2023-05-16T08:58:21.488Z,1007.3
2023-05-16T09:01:21.500Z,1007.32
2023-05-16T09:04:21.506Z,1007.29
2023-05-16T09:07:21.494Z,1007.3
2023-05-16T09:10:21.572Z,1007.34
2023-05-16T09:13:21.486Z,1007.34
2023-05-16T09:16:21.583Z,1007.39
2023-05-16T09:19:21.550Z,1007.38
2023-05-16T09:22:21.490Z,1007.31
2023-05-16T09:25:29.052Z,1007.33
2023-05-16T09:28:21.494Z,1007.29
2023-05-16T09:31:21.509Z,1007.32
2023-05-16T09:34:21.504Z,1007.31
2023-05-16T09:37:21.490Z,1007.35
2023-05-16T09:40:21.488Z,1007.31
2023-05-16T09:43:21.486Z,1007.35
2023-05-16T09:46:21.515Z,1007.28
2023-05-16T09:49:21.484Z,1007.33
2023-05-16T09:52:21.490Z,1007.33
2023-05-16T09:55:21.475Z,1007.36
2023-05-16T09:58:21.483Z,1007.34
2023-05-16T10:01:21.520Z,1007.38
2023-05-16T10:04:21.611Z,1007.36
2023-05-16T10:07:21.467Z,1007.37
2023-05-16T10:10:21.488Z,1007.39
2023-05-16T10:13:21.472Z,1007.41
2023-05-16T10:16:21.483Z,1007.44
2023-05-16T10:19:21.560Z,1007.39
2023-05-16T10:22:21.524Z,1007.4
2023-05-16T10:25:21.493Z,1007.41
2023-05-16T10:28:21.468Z,1007.41
2023-05-16T10:31:21.531Z,1007.4
2023-05-16T10:34:21.469Z,1007.43
2023-05-16T10:37:21.482Z,1007.46
2023-05-16T10:40:21.488Z,1007.4
2023-05-16T10:43:21.471Z,1007.42
2023-05-16T10:46:21.475Z,1007.37
2023-05-16T10:49:21.543Z,1007.36
2023-05-16T10:52:21.635Z,1007.39
2023-05-16T10:55:21.539Z,1007.37
2023-05-16T10:58:21.528Z,1007.42
2023-05-16T11:01:21.504Z,1007.45
2023-05-16T11:04:21.453Z,1007.51
2023-05-16T11:07:21.468Z,1007.55
2023-05-16T11:10:21.463Z,1007.59
2023-05-16T11:13:21.502Z,1007.59
2023-05-16T11:16:21.513Z,1007.67
2023-05-16T11:19:21.548Z,1007.64
2023-05-16T11:22:21.489Z,1007.59
2023-05-16T11:25:21.476Z,1007.6
2023-05-16T11:28:21.501Z,1007.61
2023-05-16T11:31:21.505Z,1007.62
2023-05-16T11:34:21.496Z,1007.59
2023-05-16T11:37:21.519Z,1007.57
2023-05-16T11:40:21.486Z,1007.54
2023-05-16T11:43:21.487Z,1007.52
2023-05-16T11:46:21.516Z,1007.55
2023-05-16T11:49:21.495Z,1007.52
2023-05-16T11:52:21.488Z,1007.55
2023-05-16T11:55:28.671Z,1007.61
2023-05-16T11:58:21.481Z,1007.61
2023-05-16T12:01:21.485Z,1007.58
2023-05-16T12:04:21.595Z,1007.59
2023-05-16T12:07:23.238Z,1007.53
2023-05-16T12:10:21.476Z,1007.49
2023-05-16T12:13:21.490Z,1007.43
2023-05-16T12:16:21.526Z,1007.44
2023-05-16T12:19:21.541Z,1007.4
2023-05-16T12:22:21.579Z,1007.46
2023-05-16T12:25:21.502Z,1007.38
2023-05-16T12:28:21.503Z,1007.38
2023-05-16T12:31:30.842Z,1007.33
2023-05-16T12:34:21.531Z,1007.32
2023-05-16T12:37:21.493Z,1007.36
2023-05-16T12:40:21.495Z,1007.38
2023-05-16T12:43:21.541Z,1007.42
2023-05-16T12:46:21.567Z,1007.42
2023-05-16T12:49:21.483Z,1007.42
2023-05-16T12:52:21.510Z,1007.5
2023-05-16T12:55:21.483Z,1007.53
2023-05-16T12:58:21.509Z,1007.58
2023-05-16T13:01:21.524Z,1007.55
2023-05-16T13:04:21.601Z,1007.53
2023-05-16T13:07:21.480Z,1007.53
2023-05-16T13:10:21.480Z,1007.52
2023-05-16T13:13:29.047Z,1007.51
2023-05-16T13:16:21.507Z,1007.54
2023-05-16T13:19:21.721Z,1007.56
2023-05-16T13:22:21.473Z,1007.58
2023-05-16T13:25:21.491Z,1007.58
2023-05-16T13:28:21.494Z,1007.53
2023-05-16T13:31:21.526Z,1007.6
2023-05-16T13:34:21.511Z,1007.63
2023-05-16T13:37:21.507Z,1007.56
2023-05-16T13:40:21.482Z,1007.57
2023-05-16T13:43:21.474Z,1007.55
2023-05-16T13:46:21.509Z,1007.59
2023-05-16T13:49:21.462Z,1007.59
2023-05-16T13:52:21.476Z,1007.61
2023-05-16T13:55:21.469Z,1007.66
2023-05-16T13:58:21.475Z,1007.64
2023-05-16T14:01:21.542Z,1007.67
2023-05-16T14:04:21.469Z,1007.69
2023-05-16T14:07:21.475Z,1007.72
2023-05-16T14:10:21.477Z,1007.7
2023-05-16T14:13:21.460Z,1007.7
2023-05-16T14:16:21.517Z,1007.68
2023-05-16T14:19:21.496Z,1007.67
2023-05-16T14:22:21.492Z,1007.68
2023-05-16T14:25:21.478Z,1007.73
2023-05-16T14:28:21.487Z,1007.72
2023-05-16T14:31:21.519Z,1007.75
2023-05-16T14:34:21.471Z,1007.74
2023-05-16T14:37:21.474Z,1007.72
2023-05-16T14:40:21.472Z,1007.78
2023-05-16T14:43:21.468Z,1007.77
2023-05-16T14:46:21.529Z,1007.76
2023-05-16T14:49:21.473Z,1007.81
2023-05-16T14:52:21.468Z,1007.87
2023-05-16T14:55:21.462Z,1007.85
2023-05-16T14:58:21.474Z,1007.85
2023-05-16T15:01:21.522Z,1007.93
2023-05-16T15:04:21.464Z,1008.03
2023-05-16T15:07:21.462Z,1008.04
2023-05-16T15:10:21.461Z,1008.03
2023-05-16T15:13:21.467Z,1008.01
2023-05-16T15:16:21.504Z,1008.05
2023-05-16T15:19:21.588Z,1008.05
2023-05-16T15:22:21.452Z,1008.03
2023-05-16T15:25:21.471Z,1008.06
2023-05-16T15:28:22.656Z,1008.05
2023-05-16T15:31:21.464Z,1008
2023-05-16T15:34:21.455Z,1008.03
2023-05-16T15:37:21.452Z,1008.01
2023-05-16T15:40:26.347Z,1008.04
2023-05-16T15:43:21.458Z,1008
2023-05-16T15:46:21.489Z,1007.99
2023-05-16T15:49:21.459Z,1007.96
2023-05-16T15:52:22.899Z,1007.97
2023-05-16T15:55:21.447Z,1007.93
2023-05-16T15:58:22.817Z,1007.99
2023-05-16T16:01:21.465Z,1008.03
2023-05-16T16:04:23.320Z,1008.03
2023-05-16T16:07:21.453Z,1008.01
2023-05-16T16:10:22.621Z,1007.94
2023-05-16T16:13:21.462Z,1007.96
2023-05-16T16:16:21.460Z,1007.87
2023-05-16T16:19:21.591Z,1007.81
2023-05-16T16:25:21.446Z,1007.8
2023-05-16T16:28:22.547Z,1007.81
2023-05-16T16:31:21.456Z,1007.8
2023-05-16T16:34:23.069Z,1007.8
2023-05-16T16:37:21.454Z,1007.8
2023-05-16T16:40:21.434Z,1007.79
2023-05-16T16:43:21.429Z,1007.79
2023-05-16T16:46:21.438Z,1007.83
2023-05-16T16:49:21.418Z,1007.85
2023-05-16T16:52:21.443Z,1007.81
2023-05-16T16:55:21.435Z,1007.81
2023-05-16T16:58:21.497Z,1007.77
2023-05-16T17:01:21.431Z,1007.81
2023-05-16T17:04:21.430Z,1007.81
2023-05-16T17:07:21.423Z,1007.83
2023-05-16T17:10:21.529Z,1007.83
2023-05-16T17:13:21.419Z,1007.84
2023-05-16T17:16:21.465Z,1007.88
2023-05-16T17:19:21.469Z,1007.92
2023-05-16T17:22:21.456Z,1007.97
2023-05-16T17:25:21.407Z,1008.03
2023-05-16T17:28:21.502Z,1008.08
2023-05-16T17:31:21.414Z,1008.1
2023-05-16T17:34:21.407Z,1008.13
2023-05-16T17:37:21.478Z,1008.18
2023-05-16T17:40:21.415Z,1008.18
2023-05-16T17:43:21.417Z,1008.21
2023-05-16T17:46:21.441Z,1008.23
2023-05-16T17:49:21.430Z,1008.26
2023-05-16T17:52:21.430Z,1008.26
2023-05-16T17:55:21.395Z,1008.23
2023-05-16T17:58:21.400Z,1008.27
2023-05-16T18:01:21.404Z,1008.27
2023-05-16T18:04:21.510Z,1008.29
2023-05-16T18:07:21.488Z,1008.3
2023-05-16T18:10:21.428Z,1008.34
2023-05-16T18:13:21.421Z,1008.4
2023-05-16T18:16:21.417Z,1008.47
2023-05-16T18:19:21.531Z,1008.49
2023-05-16T18:22:21.412Z,1008.54
2023-05-16T18:25:21.408Z,1008.59
2023-05-16T18:28:21.430Z,1008.61
2023-05-16T18:31:21.420Z,1008.65
2023-05-16T18:34:21.411Z,1008.69
2023-05-16T18:37:21.443Z,1008.72
2023-05-16T18:40:26.452Z,1008.7
2023-05-16T18:43:21.460Z,1008.78
2023-05-16T18:46:21.432Z,1008.79
2023-05-16T18:49:21.410Z,1008.82
2023-05-16T18:52:21.406Z,1008.83
2023-05-16T18:55:21.408Z,1008.87
2023-05-16T18:58:21.407Z,1008.93
2023-05-16T19:01:21.404Z,1009.03
2023-05-16T19:04:21.492Z,1009.03
2023-05-16T19:07:21.405Z,1009.08
2023-05-16T19:10:21.416Z,1009.1
2023-05-16T19:13:21.399Z,1009.18
2023-05-16T19:16:21.409Z,1009.19
2023-05-16T19:19:21.474Z,1009.22
2023-05-16T19:22:21.398Z,1009.28
2023-05-16T19:25:21.394Z,1009.32
2023-05-16T19:28:21.407Z,1009.39
2023-05-16T19:31:21.401Z,1009.45
2023-05-16T19:34:21.446Z,1009.5
2023-05-16T19:37:21.391Z,1009.57
2023-05-16T19:40:21.401Z,1009.6
2023-05-16T19:43:21.412Z,1009.61
2023-05-16T19:46:21.388Z,1009.68
2023-05-16T19:49:21.401Z,1009.74
2023-05-16T19:52:21.391Z,1009.77
2023-05-16T19:55:21.441Z,1009.82
2023-05-16T19:58:21.395Z,1009.88
2023-05-16T20:01:21.410Z,1009.91
2023-05-16T20:04:21.489Z,1009.97
2023-05-16T20:07:21.386Z,1010.03
2023-05-16T20:10:22.092Z,1010.08
2023-05-16T20:13:21.383Z,1010.1
2023-05-16T20:16:21.383Z,1010.12
2023-05-16T20:19:21.441Z,1010.2
2023-05-16T20:22:21.413Z,1010.25
2023-05-16T20:25:21.390Z,1010.26
2023-05-16T20:28:21.383Z,1010.33
2023-05-16T20:31:21.377Z,1010.39
2023-05-16T20:34:21.399Z,1010.43
2023-05-16T20:37:21.370Z,1010.44
2023-05-16T20:40:23.124Z,1010.48
2023-05-16T20:43:22.371Z,1010.5
2023-05-16T20:46:22.065Z,1010.55
2023-05-16T20:49:22.062Z,1010.6
2023-05-16T20:52:22.161Z,1010.63
2023-05-16T20:55:22.060Z,1010.68
2023-05-16T20:58:22.209Z,1010.67
2023-05-16T21:01:22.078Z,1010.67
2023-05-16T21:04:22.082Z,1010.75
2023-05-16T21:07:22.063Z,1010.76
2023-05-16T21:10:22.064Z,1010.81
2023-05-16T21:13:22.062Z,1010.78
2023-05-16T21:16:22.080Z,1010.78
2023-05-16T21:19:22.111Z,1010.78
2023-05-16T21:22:22.062Z,1010.8
2023-05-16T21:25:22.062Z,1010.87
2023-05-16T21:28:22.069Z,1010.86
2023-05-16T21:31:22.089Z,1010.87
2023-05-16T21:34:22.077Z,1010.93
2023-05-16T21:37:22.068Z,1010.93
2023-05-16T21:40:22.059Z,1011.01
2023-05-16T21:43:22.066Z,1011.01
2023-05-16T21:46:22.061Z,1011.02
2023-05-16T21:49:22.055Z,1011.04
2023-05-16T21:52:22.065Z,1011.03
2023-05-16T21:55:22.070Z,1011.03
2023-05-16T21:58:22.126Z,1011.03
2023-05-16T22:01:22.092Z,1011.06
2023-05-16T22:04:22.163Z,1011.09
2023-05-16T22:07:22.054Z,1011.09
2023-05-16T22:10:22.056Z,1011.11
2023-05-16T22:13:22.074Z,1011.1
2023-05-16T22:16:22.069Z,1011.1
2023-05-16T22:19:22.065Z,1011.07
2023-05-16T22:22:22.046Z,1011.12
2023-05-16T22:25:22.069Z,1011.09
2023-05-16T22:28:22.049Z,1011.12
2023-05-16T22:31:22.053Z,1011.17
2023-05-16T22:34:22.051Z,1011.2
2023-05-16T22:37:22.066Z,1011.2
2023-05-16T22:40:22.054Z,1011.22
2023-05-16T22:43:22.050Z,1011.14
2023-05-16T22:46:22.053Z,1011.16
2023-05-16T22:49:22.042Z,1011.17
2023-05-16T22:52:22.080Z,1011.23
2023-05-16T22:55:22.054Z,1011.23
2023-05-16T22:58:22.076Z,1011.29
2023-05-16T23:01:22.044Z,1011.28
2023-05-16T23:04:22.072Z,1011.32
2023-05-16T23:07:22.044Z,1011.35
2023-05-16T23:10:22.049Z,1011.35
2023-05-16T23:13:22.046Z,1011.39
2023-05-16T23:16:22.049Z,1011.42
2023-05-16T23:19:22.166Z,1011.4
2023-05-16T23:22:22.033Z,1011.37
2023-05-16T23:25:22.034Z,1011.41
2023-05-16T23:28:22.061Z,1011.4
2023-05-16T23:31:22.043Z,1011.41
2023-05-16T23:34:22.044Z,1011.43
2023-05-16T23:37:22.026Z,1011.37
2023-05-16T23:40:22.029Z,1011.43
2023-05-16T23:43:22.034Z,1011.46
2023-05-16T23:46:22.050Z,1011.46
2023-05-16T23:49:22.042Z,1011.49
2023-05-16T23:52:22.041Z,1011.54
2023-05-16T23:55:22.019Z,1011.53
2023-05-16T23:58:22.033Z,1011.53
